sensor_id;sensor_type;location;lat;lon;timestamp;P1;durP1;ratioP1;P2;durP2;ratioP2
21543;SDS011;10933;50.754;11.508;2023-08-24T00:00:58;8.15;;;7.75;;
21543;SDS011;10933;50.754;11.508;2023-08-24T00:03:25;8.85;;;8.25;;
21543;SDS011;10933;50.754;11.508;2023-08-24T00:05:51;9.18;;;8.55;;
21543;SDS011;10933;50.754;11.508;2023-08-24T00:08:17;8.38;;;8.07;;
21543;SDS011;10933;50.754;11.508;2023-08-24T00:10:43;8.60;;;8.20;;
21543;SDS011;10933;50.754;11.508;2023-08-24T00:13:13;8.02;;;7.63;;
21543;SDS011;10933;50.754;11.508;2023-08-24T00:15:39;8.90;;;8.43;;
21543;SDS011;10933;50.754;11.508;2023-08-24T00:18:06;7.97;;;7.55;;
21543;SDS011;10933;50.754;11.508;2023-08-24T00:20:32;7.22;;;6.93;;
21543;SDS011;10933;50.754;11.508;2023-08-24T00:22:59;7.93;;;7.53;;
21543;SDS011;10933;50.754;11.508;2023-08-24T00:25:25;7.13;;;6.82;;
21543;SDS011;10933;50.754;11.508;2023-08-24T00:27:55;7.55;;;7.05;;
21543;SDS011;10933;50.754;11.508;2023-08-24T00:30:21;8.27;;;7.85;;
21543;SDS011;10933;50.754;11.508;2023-08-24T00:32:48;8.05;;;7.65;;
21543;SDS011;10933;50.754;11.508;2023-08-24T00:35:14;7.95;;;7.60;;
21543;SDS011;10933;50.754;11.508;2023-08-24T00:37:40;7.82;;;7.43;;
21543;SDS011;10933;50.754;11.508;2023-08-24T00:40:07;7.38;;;6.97;;
21543;SDS011;10933;50.754;11.508;2023-08-24T00:42:40;7.28;;;6.88;;
21543;SDS011;10933;50.754;11.508;2023-08-24T00:45:11;6.90;;;6.60;;
21543;SDS011;10933;50.754;11.508;2023-08-24T00:47:45;7.43;;;7.03;;
21543;SDS011;10933;50.754;11.508;2023-08-24T00:50:12;7.78;;;7.18;;
21543;SDS011;10933;50.754;11.508;2023-08-24T00:52:40;7.90;;;7.40;;
21543;SDS011;10933;50.754;11.508;2023-08-24T00:55:07;7.70;;;7.25;;
21543;SDS011;10933;50.754;11.508;2023-08-24T00:57:35;7.70;;;7.10;;
21543;SDS011;10933;50.754;11.508;2023-08-24T01:00:03;7.43;;;7.03;;
21543;SDS011;10933;50.754;11.508;2023-08-24T01:02:33;7.80;;;7.40;;
21543;SDS011;10933;50.754;11.508;2023-08-24T01:04:59;7.75;;;7.35;;
21543;SDS011;10933;50.754;11.508;2023-08-24T01:07:25;8.00;;;7.60;;
21543;SDS011;10933;50.754;11.508;2023-08-24T01:09:52;8.77;;;8.30;;
21543;SDS011;10933;50.754;11.508;2023-08-24T01:12:31;8.82;;;8.32;;
21543;SDS011;10933;50.754;11.508;2023-08-24T01:17:50;9.40;;;9.00;;
21543;SDS011;10933;50.754;11.508;2023-08-24T01:20:22;9.77;;;9.23;;
21543;SDS011;10933;50.754;11.508;2023-08-24T01:22:55;10.43;;;9.30;;
21543;SDS011;10933;50.754;11.508;2023-08-24T01:26:12;9.93;;;9.43;;
21543;SDS011;10933;50.754;11.508;2023-08-24T01:28:42;11.70;;;10.38;;
21543;SDS011;10933;50.754;11.508;2023-08-24T01:31:10;10.23;;;9.73;;
21543;SDS011;10933;50.754;11.508;2023-08-24T01:33:39;10.18;;;9.68;;
21543;SDS011;10933;50.754;11.508;2023-08-24T01:36:05;9.98;;;9.25;;
21543;SDS011;10933;50.754;11.508;2023-08-24T01:38:33;9.88;;;9.38;;
21543;SDS011;10933;50.754;11.508;2023-08-24T01:43:34;9.80;;;9.30;;
21543;SDS011;10933;50.754;11.508;2023-08-24T01:46:03;10.55;;;10.00;;
21543;SDS011;10933;50.754;11.508;2023-08-24T01:48:29;9.85;;;9.35;;
21543;SDS011;10933;50.754;11.508;2023-08-24T01:50:57;9.63;;;9.13;;
21543;SDS011;10933;50.754;11.508;2023-08-24T01:53:24;8.80;;;8.10;;
21543;SDS011;10933;50.754;11.508;2023-08-24T01:55:52;8.73;;;8.32;;
21543;SDS011;10933;50.754;11.508;2023-08-24T01:58:19;9.10;;;8.70;;
21543;SDS011;10933;50.754;11.508;2023-08-24T02:00:45;10.43;;;9.52;;
21543;SDS011;10933;50.754;11.508;2023-08-24T02:03:11;10.38;;;9.80;;
21543;SDS011;10933;50.754;11.508;2023-08-24T02:05:37;9.20;;;8.75;;
21543;SDS011;10933;50.754;11.508;2023-08-24T02:08:03;9.05;;;8.30;;
21543;SDS011;10933;50.754;11.508;2023-08-24T02:10:30;9.43;;;8.93;;
21543;SDS011;10933;50.754;11.508;2023-08-24T02:12:56;9.40;;;8.90;;
21543;SDS011;10933;50.754;11.508;2023-08-24T02:15:22;9.27;;;8.88;;
21543;SDS011;10933;50.754;11.508;2023-08-24T02:17:48;10.20;;;9.57;;
21543;SDS011;10933;50.754;11.508;2023-08-24T02:20:14;11.82;;;10.90;;
21543;SDS011;10933;50.754;11.508;2023-08-24T02:22:40;11.35;;;10.55;;
21543;SDS011;10933;50.754;11.508;2023-08-24T02:25:08;10.43;;;9.65;;
21543;SDS011;10933;50.754;11.508;2023-08-24T02:27:34;10.30;;;9.80;;
21543;SDS011;10933;50.754;11.508;2023-08-24T02:30:00;11.45;;;10.93;;
21543;SDS011;10933;50.754;11.508;2023-08-24T02:32:27;11.50;;;10.77;;
21543;SDS011;10933;50.754;11.508;2023-08-24T02:34:53;11.25;;;10.73;;
21543;SDS011;10933;50.754;11.508;2023-08-24T02:37:19;10.35;;;9.75;;
21543;SDS011;10933;50.754;11.508;2023-08-24T02:39:45;12.43;;;10.45;;
21543;SDS011;10933;50.754;11.508;2023-08-24T02:42:11;10.75;;;9.90;;
21543;SDS011;10933;50.754;11.508;2023-08-24T02:44:37;11.00;;;10.50;;
21543;SDS011;10933;50.754;11.508;2023-08-24T02:47:04;10.82;;;10.32;;
21543;SDS011;10933;50.754;11.508;2023-08-24T02:49:30;10.00;;;9.45;;
21543;SDS011;10933;50.754;11.508;2023-08-24T02:51:56;10.18;;;9.18;;
21543;SDS011;10933;50.754;11.508;2023-08-24T02:54:22;9.23;;;8.57;;
21543;SDS011;10933;50.754;11.508;2023-08-24T02:56:48;9.27;;;8.88;;
21543;SDS011;10933;50.754;11.508;2023-08-24T02:59:14;9.25;;;8.80;;
21543;SDS011;10933;50.754;11.508;2023-08-24T03:01:40;9.77;;;9.27;;
21543;SDS011;10933;50.754;11.508;2023-08-24T03:04:06;9.32;;;8.85;;
21543;SDS011;10933;50.754;11.508;2023-08-24T03:06:32;10.30;;;9.57;;
21543;SDS011;10933;50.754;11.508;2023-08-24T03:08:59;8.73;;;8.32;;
21543;SDS011;10933;50.754;11.508;2023-08-24T03:11:29;9.13;;;8.73;;
21543;SDS011;10933;50.754;11.508;2023-08-24T03:13:55;10.23;;;9.25;;
21543;SDS011;10933;50.754;11.508;2023-08-24T03:16:21;11.25;;;10.75;;
21543;SDS011;10933;50.754;11.508;2023-08-24T03:18:47;11.85;;;10.88;;
21543;SDS011;10933;50.754;11.508;2023-08-24T03:21:13;9.68;;;9.18;;
21543;SDS011;10933;50.754;11.508;2023-08-24T03:23:39;10.15;;;9.73;;
21543;SDS011;10933;50.754;11.508;2023-08-24T03:26:05;10.10;;;9.40;;
21543;SDS011;10933;50.754;11.508;2023-08-24T03:28:31;9.55;;;9.05;;
21543;SDS011;10933;50.754;11.508;2023-08-24T03:30:57;9.38;;;8.55;;
21543;SDS011;10933;50.754;11.508;2023-08-24T03:33:23;8.88;;;8.48;;
21543;SDS011;10933;50.754;11.508;2023-08-24T03:35:50;9.95;;;9.45;;
21543;SDS011;10933;50.754;11.508;2023-08-24T03:38:16;10.85;;;9.93;;
21543;SDS011;10933;50.754;11.508;2023-08-24T03:40:42;11.10;;;10.05;;
21543;SDS011;10933;50.754;11.508;2023-08-24T03:43:08;10.52;;;9.63;;
21543;SDS011;10933;50.754;11.508;2023-08-24T03:45:34;10.55;;;10.05;;
21543;SDS011;10933;50.754;11.508;2023-08-24T03:48:00;10.60;;;10.10;;
21543;SDS011;10933;50.754;11.508;2023-08-24T03:50:27;14.55;;;13.55;;
21543;SDS011;10933;50.754;11.508;2023-08-24T03:52:53;18.33;;;17.13;;
21543;SDS011;10933;50.754;11.508;2023-08-24T03:55:20;11.73;;;10.93;;
21543;SDS011;10933;50.754;11.508;2023-08-24T03:57:46;12.27;;;11.07;;
21543;SDS011;10933;50.754;11.508;2023-08-24T04:00:12;11.95;;;11.25;;
21543;SDS011;10933;50.754;11.508;2023-08-24T04:02:39;14.70;;;13.85;;
21543;SDS011;10933;50.754;11.508;2023-08-24T04:05:06;11.25;;;10.68;;
21543;SDS011;10933;50.754;11.508;2023-08-24T04:07:32;11.73;;;10.75;;
21543;SDS011;10933;50.754;11.508;2023-08-24T04:10:01;10.63;;;10.02;;
21543;SDS011;10933;50.754;11.508;2023-08-24T04:12:29;10.20;;;9.60;;
21543;SDS011;10933;50.754;11.508;2023-08-24T04:14:56;11.30;;;10.80;;
21543;SDS011;10933;50.754;11.508;2023-08-24T04:17:22;11.57;;;10.98;;
21543;SDS011;10933;50.754;11.508;2023-08-24T04:19:49;12.23;;;11.38;;
21543;SDS011;10933;50.754;11.508;2023-08-24T04:22:15;11.45;;;10.85;;
21543;SDS011;10933;50.754;11.508;2023-08-24T04:24:41;12.57;;;11.88;;
21543;SDS011;10933;50.754;11.508;2023-08-24T04:27:07;12.57;;;11.80;;
21543;SDS011;10933;50.754;11.508;2023-08-24T04:29:33;11.73;;;10.60;;
21543;SDS011;10933;50.754;11.508;2023-08-24T04:31:59;11.13;;;10.55;;
21543;SDS011;10933;50.754;11.508;2023-08-24T04:34:25;10.68;;;10.18;;
21543;SDS011;10933;50.754;11.508;2023-08-24T04:36:52;10.98;;;10.48;;
21543;SDS011;10933;50.754;11.508;2023-08-24T04:39:19;10.90;;;10.20;;
21543;SDS011;10933;50.754;11.508;2023-08-24T04:41:45;11.10;;;10.55;;
21543;SDS011;10933;50.754;11.508;2023-08-24T04:44:11;11.85;;;11.13;;
21543;SDS011;10933;50.754;11.508;2023-08-24T04:46:37;11.73;;;11.13;;
21543;SDS011;10933;50.754;11.508;2023-08-24T04:49:03;12.05;;;11.45;;
21543;SDS011;10933;50.754;11.508;2023-08-24T04:51:29;12.60;;;11.25;;
21543;SDS011;10933;50.754;11.508;2023-08-24T04:53:55;11.60;;;11.07;;
21543;SDS011;10933;50.754;11.508;2023-08-24T04:56:22;10.82;;;10.32;;
21543;SDS011;10933;50.754;11.508;2023-08-24T04:58:52;11.98;;;11.00;;
21543;SDS011;10933;50.754;11.508;2023-08-24T05:01:26;11.60;;;10.90;;
21543;SDS011;10933;50.754;11.508;2023-08-24T05:03:52;12.27;;;11.48;;
21543;SDS011;10933;50.754;11.508;2023-08-24T05:06:19;11.10;;;10.55;;
21543;SDS011;10933;50.754;11.508;2023-08-24T05:08:45;12.07;;;10.10;;
21543;SDS011;10933;50.754;11.508;2023-08-24T05:11:17;10.77;;;10.00;;
21543;SDS011;10933;50.754;11.508;2023-08-24T05:13:44;11.75;;;10.95;;
21543;SDS011;10933;50.754;11.508;2023-08-24T05:16:11;11.85;;;11.25;;
21543;SDS011;10933;50.754;11.508;2023-08-24T05:18:38;11.02;;;10.52;;
21543;SDS011;10933;50.754;11.508;2023-08-24T05:21:05;11.05;;;10.55;;
21543;SDS011;10933;50.754;11.508;2023-08-24T05:23:34;12.38;;;10.95;;
21543;SDS011;10933;50.754;11.508;2023-08-24T05:26:01;11.20;;;10.65;;
21543;SDS011;10933;50.754;11.508;2023-08-24T05:28:28;10.77;;;10.10;;
21543;SDS011;10933;50.754;11.508;2023-08-24T05:30:55;11.05;;;10.15;;
21543;SDS011;10933;50.754;11.508;2023-08-24T05:33:22;10.57;;;9.98;;
21543;SDS011;10933;50.754;11.508;2023-08-24T05:35:49;11.02;;;10.18;;
21543;SDS011;10933;50.754;11.508;2023-08-24T05:38:16;10.80;;;10.10;;
21543;SDS011;10933;50.754;11.508;2023-08-24T05:40:43;11.45;;;10.60;;
21543;SDS011;10933;50.754;11.508;2023-08-24T05:43:12;10.93;;;10.35;;
21543;SDS011;10933;50.754;11.508;2023-08-24T05:45:38;10.95;;;10.45;;
21543;SDS011;10933;50.754;11.508;2023-08-24T05:48:05;11.63;;;10.82;;
21543;SDS011;10933;50.754;11.508;2023-08-24T05:50:32;9.82;;;9.32;;
21543;SDS011;10933;50.754;11.508;2023-08-24T05:52:58;9.73;;;9.10;;
21543;SDS011;10933;50.754;11.508;2023-08-24T05:55:25;7.70;;;7.40;;
21543;SDS011;10933;50.754;11.508;2023-08-24T05:57:51;8.48;;;7.90;;
21543;SDS011;10933;50.754;11.508;2023-08-24T06:00:17;6.90;;;6.55;;
21543;SDS011;10933;50.754;11.508;2023-08-24T06:02:43;7.72;;;7.32;;
21543;SDS011;10933;50.754;11.508;2023-08-24T06:05:09;8.75;;;6.70;;
21543;SDS011;10933;50.754;11.508;2023-08-24T06:07:36;8.75;;;6.63;;
21543;SDS011;10933;50.754;11.508;2023-08-24T06:10:02;7.70;;;6.93;;
21543;SDS011;10933;50.754;11.508;2023-08-24T06:12:28;7.15;;;6.75;;
21543;SDS011;10933;50.754;11.508;2023-08-24T06:14:54;7.78;;;7.45;;
21543;SDS011;10933;50.754;11.508;2023-08-24T06:17:20;10.20;;;9.45;;
21543;SDS011;10933;50.754;11.508;2023-08-24T06:19:46;13.35;;;12.38;;
21543;SDS011;10933;50.754;11.508;2023-08-24T06:22:12;8.80;;;8.30;;
21543;SDS011;10933;50.754;11.508;2023-08-24T06:24:39;7.60;;;7.20;;
21543;SDS011;10933;50.754;11.508;2023-08-24T06:27:05;7.25;;;6.63;;
21543;SDS011;10933;50.754;11.508;2023-08-24T06:29:31;7.57;;;6.95;;
21543;SDS011;10933;50.754;11.508;2023-08-24T06:31:57;8.57;;;7.78;;
21543;SDS011;10933;50.754;11.508;2023-08-24T06:34:23;8.20;;;7.80;;
21543;SDS011;10933;50.754;11.508;2023-08-24T06:36:50;8.63;;;8.23;;
21543;SDS011;10933;50.754;11.508;2023-08-24T06:39:18;9.20;;;8.18;;
21543;SDS011;10933;50.754;11.508;2023-08-24T06:41:44;8.70;;;8.20;;
21543;SDS011;10933;50.754;11.508;2023-08-24T06:44:10;8.07;;;7.68;;
21543;SDS011;10933;50.754;11.508;2023-08-24T06:46:36;8.65;;;8.15;;
21543;SDS011;10933;50.754;11.508;2023-08-24T06:49:02;9.00;;;8.50;;
21543;SDS011;10933;50.754;11.508;2023-08-24T06:51:28;8.27;;;7.97;;
21543;SDS011;10933;50.754;11.508;2023-08-24T06:53:55;9.18;;;8.77;;
21543;SDS011;10933;50.754;11.508;2023-08-24T06:56:21;8.40;;;7.82;;
21543;SDS011;10933;50.754;11.508;2023-08-24T06:58:47;8.85;;;8.27;;
21543;SDS011;10933;50.754;11.508;2023-08-24T07:01:13;8.05;;;7.65;;
21543;SDS011;10933;50.754;11.508;2023-08-24T07:03:40;8.18;;;7.68;;
21543;SDS011;10933;50.754;11.508;2023-08-24T07:06:07;8.15;;;7.53;;
21543;SDS011;10933;50.754;11.508;2023-08-24T07:08:33;7.88;;;7.40;;
21543;SDS011;10933;50.754;11.508;2023-08-24T07:11:00;7.70;;;7.30;;
21543;SDS011;10933;50.754;11.508;2023-08-24T07:13:27;6.70;;;6.40;;
21543;SDS011;10933;50.754;11.508;2023-08-24T07:15:53;6.60;;;6.18;;
21543;SDS011;10933;50.754;11.508;2023-08-24T07:18:20;6.45;;;6.15;;
21543;SDS011;10933;50.754;11.508;2023-08-24T07:20:46;5.97;;;5.72;;
21543;SDS011;10933;50.754;11.508;2023-08-24T07:23:13;6.57;;;6.28;;
21543;SDS011;10933;50.754;11.508;2023-08-24T07:25:39;9.65;;;6.32;;
21543;SDS011;10933;50.754;11.508;2023-08-24T07:28:06;5.68;;;5.38;;
21543;SDS011;10933;50.754;11.508;2023-08-24T07:30:33;6.03;;;5.50;;
21543;SDS011;10933;50.754;11.508;2023-08-24T07:33:00;5.55;;;5.25;;
21543;SDS011;10933;50.754;11.508;2023-08-24T07:35:30;4.55;;;4.35;;
21543;SDS011;10933;50.754;11.508;2023-08-24T07:37:57;4.55;;;4.35;;
21543;SDS011;10933;50.754;11.508;2023-08-24T07:40:23;4.28;;;4.07;;
21543;SDS011;10933;50.754;11.508;2023-08-24T07:42:51;4.65;;;4.25;;
21543;SDS011;10933;50.754;11.508;2023-08-24T07:45:19;3.83;;;3.63;;
21543;SDS011;10933;50.754;11.508;2023-08-24T07:47:46;3.78;;;3.58;;
21543;SDS011;10933;50.754;11.508;2023-08-24T07:50:12;3.40;;;3.30;;
21543;SDS011;10933;50.754;11.508;2023-08-24T07:52:38;3.50;;;3.20;;
21543;SDS011;10933;50.754;11.508;2023-08-24T07:55:04;3.35;;;3.15;;
21543;SDS011;10933;50.754;11.508;2023-08-24T07:57:32;3.00;;;2.80;;
21543;SDS011;10933;50.754;11.508;2023-08-24T07:59:59;3.53;;;2.72;;
21543;SDS011;10933;50.754;11.508;2023-08-24T08:02:25;3.97;;;2.80;;
21543;SDS011;10933;50.754;11.508;2023-08-24T08:04:55;2.67;;;2.55;;
21543;SDS011;10933;50.754;11.508;2023-08-24T08:07:23;2.75;;;2.60;;
21543;SDS011;10933;50.754;11.508;2023-08-24T08:09:49;4.10;;;2.78;;
21543;SDS011;10933;50.754;11.508;2023-08-24T08:12:15;2.97;;;2.78;;
21543;SDS011;10933;50.754;11.508;2023-08-24T08:14:41;2.67;;;2.50;;
21543;SDS011;10933;50.754;11.508;2023-08-24T08:17:08;2.65;;;2.45;;
21543;SDS011;10933;50.754;11.508;2023-08-24T08:19:34;3.55;;;2.53;;
21543;SDS011;10933;50.754;11.508;2023-08-24T08:22:02;2.70;;;2.47;;
21543;SDS011;10933;50.754;11.508;2023-08-24T08:24:29;2.40;;;2.30;;
21543;SDS011;10933;50.754;11.508;2023-08-24T08:26:55;2.42;;;2.22;;
21543;SDS011;10933;50.754;11.508;2023-08-24T08:29:22;3.17;;;2.40;;
21543;SDS011;10933;50.754;11.508;2023-08-24T08:31:48;2.33;;;2.22;;
21543;SDS011;10933;50.754;11.508;2023-08-24T08:34:14;2.53;;;2.33;;
21543;SDS011;10933;50.754;11.508;2023-08-24T08:36:40;2.80;;;2.60;;
21543;SDS011;10933;50.754;11.508;2023-08-24T08:39:06;2.63;;;2.38;;
21543;SDS011;10933;50.754;11.508;2023-08-24T08:41:34;2.60;;;2.50;;
21543;SDS011;10933;50.754;11.508;2023-08-24T08:44:09;2.40;;;2.30;;
21543;SDS011;10933;50.754;11.508;2023-08-24T08:46:38;4.13;;;2.80;;
21543;SDS011;10933;50.754;11.508;2023-08-24T08:49:05;2.83;;;2.60;;
21543;SDS011;10933;50.754;11.508;2023-08-24T08:51:33;6.40;;;2.55;;
21543;SDS011;10933;50.754;11.508;2023-08-24T08:54:01;2.88;;;2.65;;
21543;SDS011;10933;50.754;11.508;2023-08-24T08:56:30;3.40;;;3.20;;
21543;SDS011;10933;50.754;11.508;2023-08-24T08:58:57;4.53;;;3.25;;
21543;SDS011;10933;50.754;11.508;2023-08-24T09:01:28;3.58;;;3.13;;
21543;SDS011;10933;50.754;11.508;2023-08-24T09:03:54;4.45;;;4.15;;
21543;SDS011;10933;50.754;11.508;2023-08-24T09:06:23;3.80;;;3.47;;
21543;SDS011;10933;50.754;11.508;2023-08-24T09:08:49;4.90;;;3.92;;
21543;SDS011;10933;50.754;11.508;2023-08-24T09:11:16;3.63;;;3.40;;
21543;SDS011;10933;50.754;11.508;2023-08-24T09:13:45;7.10;;;3.40;;
21543;SDS011;10933;50.754;11.508;2023-08-24T09:16:11;4.15;;;3.90;;
21543;SDS011;10933;50.754;11.508;2023-08-24T09:18:41;4.38;;;4.03;;
21543;SDS011;10933;50.754;11.508;2023-08-24T09:21:12;4.45;;;4.15;;
21543;SDS011;10933;50.754;11.508;2023-08-24T09:23:46;4.90;;;4.60;;
21543;SDS011;10933;50.754;11.508;2023-08-24T09:26:31;4.35;;;4.07;;
21543;SDS011;10933;50.754;11.508;2023-08-24T09:28:58;4.88;;;4.40;;
21543;SDS011;10933;50.754;11.508;2023-08-24T09:31:35;4.88;;;4.10;;
21543;SDS011;10933;50.754;11.508;2023-08-24T09:34:02;8.50;;;5.03;;
21543;SDS011;10933;50.754;11.508;2023-08-24T09:36:37;4.85;;;4.55;;
21543;SDS011;10933;50.754;11.508;2023-08-24T09:39:04;6.30;;;5.70;;
21543;SDS011;10933;50.754;11.508;2023-08-24T09:41:43;6.03;;;5.60;;
21543;SDS011;10933;50.754;11.508;2023-08-24T09:44:10;6.05;;;5.75;;
21543;SDS011;10933;50.754;11.508;2023-08-24T09:46:37;11.10;;;6.22;;
21543;SDS011;10933;50.754;11.508;2023-08-24T09:49:04;9.82;;;5.78;;
21543;SDS011;10933;50.754;11.508;2023-08-24T09:51:31;6.68;;;5.60;;
21543;SDS011;10933;50.754;11.508;2023-08-24T09:53:59;5.40;;;5.10;;
21543;SDS011;10933;50.754;11.508;2023-08-24T09:56:34;6.18;;;5.78;;
21543;SDS011;10933;50.754;11.508;2023-08-24T09:59:06;6.60;;;4.88;;
21543;SDS011;10933;50.754;11.508;2023-08-24T10:01:43;5.45;;;4.95;;
21543;SDS011;10933;50.754;11.508;2023-08-24T10:04:12;4.80;;;4.50;;
21543;SDS011;10933;50.754;11.508;2023-08-24T10:06:46;5.05;;;4.75;;
21543;SDS011;10933;50.754;11.508;2023-08-24T10:09:21;4.95;;;4.65;;
21543;SDS011;10933;50.754;11.508;2023-08-24T10:11:52;5.35;;;4.97;;
21543;SDS011;10933;50.754;11.508;2023-08-24T10:14:39;5.43;;;5.18;;
21543;SDS011;10933;50.754;11.508;2023-08-24T10:17:17;5.03;;;4.78;;
21543;SDS011;10933;50.754;11.508;2023-08-24T10:19:44;5.22;;;4.80;;
21543;SDS011;10933;50.754;11.508;2023-08-24T10:22:12;5.13;;;4.82;;
21543;SDS011;10933;50.754;11.508;2023-08-24T10:24:38;4.95;;;4.65;;
21543;SDS011;10933;50.754;11.508;2023-08-24T10:27:07;4.45;;;4.25;;
21543;SDS011;10933;50.754;11.508;2023-08-24T10:29:37;5.35;;;4.97;;
21543;SDS011;10933;50.754;11.508;2023-08-24T10:32:03;4.53;;;4.32;;
21543;SDS011;10933;50.754;11.508;2023-08-24T10:34:30;4.72;;;4.53;;
21543;SDS011;10933;50.754;11.508;2023-08-24T10:37:06;5.38;;;4.40;;
21543;SDS011;10933;50.754;11.508;2023-08-24T10:39:46;5.43;;;5.00;;
21543;SDS011;10933;50.754;11.508;2023-08-24T10:42:12;5.70;;;5.40;;
21543;SDS011;10933;50.754;11.508;2023-08-24T10:44:39;5.30;;;5.00;;
21543;SDS011;10933;50.754;11.508;2023-08-24T10:49:43;5.82;;;5.53;;
21543;SDS011;10933;50.754;11.508;2023-08-24T10:52:22;5.45;;;5.18;;
21543;SDS011;10933;50.754;11.508;2023-08-24T10:54:50;5.30;;;4.65;;
21543;SDS011;10933;50.754;11.508;2023-08-24T10:57:18;5.25;;;4.85;;
21543;SDS011;10933;50.754;11.508;2023-08-24T11:00:08;6.13;;;4.95;;
21543;SDS011;10933;50.754;11.508;2023-08-24T11:02:44;5.63;;;4.65;;
21543;SDS011;10933;50.754;11.508;2023-08-24T11:07:54;13.00;;;3.90;;
21543;SDS011;10933;50.754;11.508;2023-08-24T11:10:26;3.83;;;3.53;;
21543;SDS011;10933;50.754;11.508;2023-08-24T11:15:38;3.58;;;3.38;;
21543;SDS011;10933;50.754;11.508;2023-08-24T11:20:46;3.95;;;3.60;;
21543;SDS011;10933;50.754;11.508;2023-08-24T11:23:17;2.72;;;2.53;;
21543;SDS011;10933;50.754;11.508;2023-08-24T11:25:45;2.40;;;2.30;;
21543;SDS011;10933;50.754;11.508;2023-08-24T11:28:15;2.63;;;2.42;;
21543;SDS011;10933;50.754;11.508;2023-08-24T11:30:46;3.17;;;2.85;;
21543;SDS011;10933;50.754;11.508;2023-08-24T11:33:13;4.18;;;2.22;;
21543;SDS011;10933;50.754;11.508;2023-08-24T11:35:43;2.58;;;2.38;;
21543;SDS011;10933;50.754;11.508;2023-08-24T11:38:10;3.25;;;2.28;;
21543;SDS011;10933;50.754;11.508;2023-08-24T11:40:37;2.28;;;1.95;;
21543;SDS011;10933;50.754;11.508;2023-08-24T11:43:04;2.17;;;2.00;;
21543;SDS011;10933;50.754;11.508;2023-08-24T11:45:34;2.15;;;1.95;;
21543;SDS011;10933;50.754;11.508;2023-08-24T11:48:02;2.20;;;2.00;;
21543;SDS011;10933;50.754;11.508;2023-08-24T11:50:32;3.28;;;2.38;;
21543;SDS011;10933;50.754;11.508;2023-08-24T11:53:01;2.67;;;2.47;;
21543;SDS011;10933;50.754;11.508;2023-08-24T11:55:27;3.35;;;2.30;;
21543;SDS011;10933;50.754;11.508;2023-08-24T11:57:54;3.00;;;2.80;;
21543;SDS011;10933;50.754;11.508;2023-08-24T12:00:20;3.40;;;2.55;;
21543;SDS011;10933;50.754;11.508;2023-08-24T12:02:47;2.67;;;2.47;;
21543;SDS011;10933;50.754;11.508;2023-08-24T12:05:24;3.72;;;2.00;;
21543;SDS011;10933;50.754;11.508;2023-08-24T12:07:52;2.10;;;2.00;;
21543;SDS011;10933;50.754;11.508;2023-08-24T12:10:19;2.67;;;2.38;;
21543;SDS011;10933;50.754;11.508;2023-08-24T12:12:46;2.10;;;2.00;;
21543;SDS011;10933;50.754;11.508;2023-08-24T12:15:16;2.40;;;2.20;;
21543;SDS011;10933;50.754;11.508;2023-08-24T12:17:45;2.75;;;2.13;;
21543;SDS011;10933;50.754;11.508;2023-08-24T12:20:18;2.15;;;2.05;;
21543;SDS011;10933;50.754;11.508;2023-08-24T12:22:53;5.45;;;2.40;;
21543;SDS011;10933;50.754;11.508;2023-08-24T12:25:23;2.28;;;2.08;;
21543;SDS011;10933;50.754;11.508;2023-08-24T12:28:07;2.85;;;1.60;;
21543;SDS011;10933;50.754;11.508;2023-08-24T12:33:31;3.50;;;2.22;;
21543;SDS011;10933;50.754;11.508;2023-08-24T12:35:57;3.00;;;2.00;;
21543;SDS011;10933;50.754;11.508;2023-08-24T12:38:24;2.20;;;1.98;;
21543;SDS011;10933;50.754;11.508;2023-08-24T12:40:51;3.30;;;1.90;;
21543;SDS011;10933;50.754;11.508;2023-08-24T12:43:18;2.20;;;2.00;;
21543;SDS011;10933;50.754;11.508;2023-08-24T12:45:44;2.17;;;2.08;;
21543;SDS011;10933;50.754;11.508;2023-08-24T12:48:10;2.08;;;1.90;;
21543;SDS011;10933;50.754;11.508;2023-08-24T12:50:39;2.40;;;1.92;;
21543;SDS011;10933;50.754;11.508;2023-08-24T12:53:06;1.80;;;1.70;;
21543;SDS011;10933;50.754;11.508;2023-08-24T12:55:32;2.03;;;1.88;;
21543;SDS011;10933;50.754;11.508;2023-08-24T12:58:00;1.80;;;1.70;;
21543;SDS011;10933;50.754;11.508;2023-08-24T13:00:27;2.38;;;2.00;;
21543;SDS011;10933;50.754;11.508;2023-08-24T13:02:53;2.15;;;2.03;;
21543;SDS011;10933;50.754;11.508;2023-08-24T13:05:20;2.17;;;2.08;;
21543;SDS011;10933;50.754;11.508;2023-08-24T13:07:46;2.05;;;1.80;;
21543;SDS011;10933;50.754;11.508;2023-08-24T13:10:12;3.10;;;2.00;;
21543;SDS011;10933;50.754;11.508;2023-08-24T13:12:39;2.88;;;2.00;;
21543;SDS011;10933;50.754;11.508;2023-08-24T13:15:05;2.30;;;2.15;;
21543;SDS011;10933;50.754;11.508;2023-08-24T13:17:32;5.20;;;2.20;;
21543;SDS011;10933;50.754;11.508;2023-08-24T13:19:58;3.38;;;2.00;;
21543;SDS011;10933;50.754;11.508;2023-08-24T13:22:24;2.63;;;2.20;;
21543;SDS011;10933;50.754;11.508;2023-08-24T13:24:50;2.10;;;2.00;;
21543;SDS011;10933;50.754;11.508;2023-08-24T13:27:16;2.13;;;1.75;;
21543;SDS011;10933;50.754;11.508;2023-08-24T13:29:42;3.38;;;1.90;;
21543;SDS011;10933;50.754;11.508;2023-08-24T13:32:08;2.38;;;2.17;;
21543;SDS011;10933;50.754;11.508;2023-08-24T13:34:35;2.47;;;2.35;;
21543;SDS011;10933;50.754;11.508;2023-08-24T13:37:02;9.07;;;2.55;;
21543;SDS011;10933;50.754;11.508;2023-08-24T13:39:29;4.00;;;2.13;;
21543;SDS011;10933;50.754;11.508;2023-08-24T13:41:56;3.05;;;1.85;;
21543;SDS011;10933;50.754;11.508;2023-08-24T13:44:22;1.83;;;1.73;;
21543;SDS011;10933;50.754;11.508;2023-08-24T13:46:48;4.10;;;2.15;;
21543;SDS011;10933;50.754;11.508;2023-08-24T13:49:15;2.33;;;2.05;;
21543;SDS011;10933;50.754;11.508;2023-08-24T13:51:45;2.38;;;2.15;;
21543;SDS011;10933;50.754;11.508;2023-08-24T13:54:14;2.40;;;2.30;;
21543;SDS011;10933;50.754;11.508;2023-08-24T13:56:42;2.08;;;1.77;;
21543;SDS011;10933;50.754;11.508;2023-08-24T13:59:09;2.85;;;1.80;;
21543;SDS011;10933;50.754;11.508;2023-08-24T14:01:35;3.38;;;1.98;;
21543;SDS011;10933;50.754;11.508;2023-08-24T14:04:02;2.17;;;2.03;;
21543;SDS011;10933;50.754;11.508;2023-08-24T14:06:32;10.88;;;1.92;;
21543;SDS011;10933;50.754;11.508;2023-08-24T14:09:00;3.10;;;1.90;;
21543;SDS011;10933;50.754;11.508;2023-08-24T14:11:27;2.42;;;2.00;;
21543;SDS011;10933;50.754;11.508;2023-08-24T14:13:53;4.07;;;2.17;;
21543;SDS011;10933;50.754;11.508;2023-08-24T14:16:19;3.85;;;1.65;;
21543;SDS011;10933;50.754;11.508;2023-08-24T14:18:46;2.35;;;2.08;;
21543;SDS011;10933;50.754;11.508;2023-08-24T14:21:12;2.17;;;2.08;;
21543;SDS011;10933;50.754;11.508;2023-08-24T14:23:39;3.42;;;1.85;;
21543;SDS011;10933;50.754;11.508;2023-08-24T14:26:06;10.07;;;2.00;;
21543;SDS011;10933;50.754;11.508;2023-08-24T14:28:51;4.22;;;2.47;;
21543;SDS011;10933;50.754;11.508;2023-08-24T14:31:22;3.40;;;1.98;;
21543;SDS011;10933;50.754;11.508;2023-08-24T14:33:50;3.30;;;2.42;;
21543;SDS011;10933;50.754;11.508;2023-08-24T14:36:16;2.17;;;1.92;;
21543;SDS011;10933;50.754;11.508;2023-08-24T14:38:43;2.20;;;2.00;;
21543;SDS011;10933;50.754;11.508;2023-08-24T14:41:10;2.65;;;2.00;;
21543;SDS011;10933;50.754;11.508;2023-08-24T14:43:37;5.05;;;2.22;;
21543;SDS011;10933;50.754;11.508;2023-08-24T14:46:04;3.75;;;2.08;;
21543;SDS011;10933;50.754;11.508;2023-08-24T14:48:31;2.33;;;2.15;;
21543;SDS011;10933;50.754;11.508;2023-08-24T14:50:57;3.97;;;2.53;;